Time;durP1;ratioP1;P1;durP2;ratioP2;P2;SDS_P1;SDS_P2;PMS_P1;PMS_P2;Temp;Humidity;BMP_temperature;BMP_pressure;BME280_temperature;BME280_humidity;BME280_pressure;Samples;Min_cycle;Max_cycle;Signal;HPM_P1;HPM_P2
2021/07/12 00:00:15;;;;;;;8.00;3.40;;;;;;;21.94;100.00;96206.25;5064563;28;20075;-50
2021/07/12 00:02:43;;;;;;;4.47;3.72;;;;;;;21.78;100.00;96207.66;5064751;28;20548;-51
2021/07/12 00:05:13;;;;;;;5.88;3.40;;;;;;;22.24;100.00;96211.75;5067268;28;20066;-49
2021/07/12 00:07:41;;;;;;;5.88;3.42;;;;;;;22.09;100.00;96205.06;5069093;28;20080;-52
2021/07/12 00:10:12;;;;;;;50.70;4.55;;;;;;;22.22;100.00;96203.06;5067375;28;20432;-50
2021/07/12 00:13:00;;;;;;;52.35;5.00;;;;;;;22.28;100.00;96201.38;5070719;28;20043;-48
2021/07/12 00:15:30;;;;;;;35.88;5.43;;;;;;;22.34;100.00;96203.16;5066890;28;20076;-50
2021/07/12 00:17:59;;;;;;;5.05;3.88;;;;;;;22.07;100.00;96205.28;5065149;28;20075;-51
2021/07/12 00:20:28;;;;;;;12.55;4.10;;;;;;;21.99;100.00;96198.34;5067399;28;20060;-51
2021/07/12 00:22:57;;;;;;;4.50;4.07;;;;;;;21.09;100.00;96193.34;5065360;28;20156;-53
2021/07/12 00:25:27;;;;;;;4.38;3.90;;;;;;;21.81;100.00;96187.59;5070552;28;20071;-51
2021/07/12 00:27:56;;;;;;;5.85;4.00;;;;;;;22.20;100.00;96188.25;5067189;28;20056;-50
2021/07/12 00:30:26;;;;;;;3.97;3.47;;;;;;;22.23;100.00;96185.13;5065506;28;20056;-51
2021/07/12 00:32:56;;;;;;;5.18;3.70;;;;;;;21.75;100.00;96193.88;5064881;28;20078;-52
2021/07/12 00:35:25;;;;;;;4.80;4.32;;;;;;;21.94;100.00;96186.63;5064584;28;20064;-49
2021/07/12 00:37:54;;;;;;;4.55;4.10;;;;;;;21.63;100.00;96190.25;5061844;28;20075;-51
2021/07/12 00:40:24;;;;;;;4.75;4.00;;;;;;;21.70;100.00;96188.31;5065553;28;20071;-53
2021/07/12 00:42:53;;;;;;;9.90;4.40;;;;;;;22.14;100.00;96192.59;5064283;28;20060;-51
2021/07/12 00:45:24;;;;;;;4.63;4.05;;;;;;;21.94;100.00;96186.63;5047014;28;20120;-50
2021/07/12 00:47:55;;;;;;;6.07;3.85;;;;;;;22.18;100.00;96182.28;5060638;28;20111;-49
2021/07/12 00:50:26;;;;;;;4.53;4.13;;;;;;;21.38;100.00;96188.41;5066992;28;20064;-55
2021/07/12 00:52:55;;;;;;;5.60;4.03;;;;;;;21.75;100.00;96175.06;5057613;28;20076;-51
2021/07/12 00:55:29;;;;;;;4.90;3.88;;;;;;;22.05;100.00;96173.28;5064388;28;20079;-53
2021/07/12 00:57:57;;;;;;;4.88;4.07;;;;;;;22.03;100.00;96172.69;5061635;28;20083;-50
2021/07/12 01:00:26;;;;;;;6.10;3.90;;;;;;;21.85;100.00;96171.84;5053425;28;20060;-49
2021/07/12 01:02:56;;;;;;;6.53;3.83;;;;;;;21.18;100.00;96176.97;5064233;28;20060;-51
2021/07/12 01:05:27;;;;;;;12.10;3.70;;;;;;;21.95;100.00;96156.88;5070204;28;20188;-49
2021/07/12 01:07:56;;;;;;;66.50;4.50;;;;;;;22.00;100.00;96166.94;5068613;28;20076;-53
2021/07/12 01:10:26;;;;;;;3.28;2.97;;;;;;;21.72;100.00;96156.72;5069923;28;20064;-50
2021/07/12 01:13:03;;;;;;;3.50;3.20;;;;;;;21.79;100.00;96160.16;5048938;28;20125;-51
2021/07/12 01:15:37;;;;;;;4.35;3.67;;;;;;;21.13;100.00;96155.34;5045952;28;20057;-49
2021/07/12 01:18:20;;;;;;;6.85;5.00;;;;;;;21.44;100.00;96158.03;5067933;28;20052;-48
2021/07/12 01:21:05;;;;;;;7.72;5.65;;;;;;;21.77;100.00;96154.19;5067857;28;20461;-52
2021/07/12 01:23:40;;;;;;;7.75;6.57;;;;;;;21.65;100.00;96151.44;5064860;28;20447;-51
2021/07/12 01:26:54;;;;;;;11.15;6.35;;;;;;;21.84;100.00;96151.44;5067040;28;20462;-51
2021/07/12 01:29:29;;;;;;;12.80;6.75;;;;;;;21.52;100.00;96148.88;5064830;28;20079;-53
2021/07/12 01:32:39;;;;;;;7.97;6.28;;;;;;;21.32;100.00;96146.31;5066486;28;20072;-50
2021/07/12 01:35:19;;;;;;;11.82;6.75;;;;;;;21.80;100.00;96143.00;5067403;28;20032;-49
2021/07/12 01:37:57;;;;;;;9.02;6.82;;;;;;;21.03;100.00;96153.19;5069894;28;20082;-51
2021/07/12 01:40:30;;;;;;;10.30;7.15;;;;;;;21.52;100.00;96144.31;5066613;28;20068;-49
2021/07/12 01:43:01;;;;;;;9.43;7.57;;;;;;;21.18;100.00;96152.84;5067060;28;20082;-48
2021/07/12 01:45:33;;;;;;;11.27;8.23;;;;;;;21.56;100.00;96136.66;5065521;28;20074;-50
2021/07/12 01:48:06;;;;;;;14.05;8.88;;;;;;;21.63;100.00;96131.22;5067498;28;21749;-54
2021/07/12 01:50:42;;;;;;;20.60;9.32;;;;;;;22.14;100.00;96128.16;5066017;28;20095;-49
2021/07/12 01:53:15;;;;;;;8.55;4.78;;;;;;;21.74;100.00;96127.78;5065911;28;20083;-54
2021/07/12 01:55:57;;;;;;;3.65;3.25;;;;;;;21.54;100.00;96118.09;5069554;28;20076;-51
2021/07/12 01:58:31;;;;;;;4.93;3.65;;;;;;;21.42;100.00;96111.81;5066148;28;20083;-52
2021/07/12 02:01:00;;;;;;;4.45;2.90;;;;;;;21.51;100.00;96123.09;5066085;28;20064;-51
2021/07/12 02:03:29;;;;;;;3.72;2.60;;;;;;;20.80;100.00;96121.59;5049588;28;20072;-47
2021/07/12 02:06:02;;;;;;;5.10;3.50;;;;;;;20.89;100.00;96116.75;5067408;28;20376;-50
2021/07/12 02:08:31;;;;;;;8.07;4.80;;;;;;;20.86;100.00;96118.03;5047514;28;20064;-50
2021/07/12 02:11:00;;;;;;;8.40;4.10;;;;;;;21.61;100.00;96115.34;5064652;28;20072;-50
2021/07/12 02:13:29;;;;;;;6.65;4.07;;;;;;;21.32;100.00;96117.63;5063839;28;20580;-49
2021/07/12 02:16:00;;;;;;;5.72;3.58;;;;;;;21.50;100.00;96111.50;5063185;28;20075;-50
2021/07/12 02:18:30;;;;;;;28.40;6.90;;;;;;;21.40;100.00;96110.38;5062283;28;20060;-49
2021/07/12 02:21:00;;;;;;;31.40;7.43;;;;;;;21.73;100.00;96100.13;5062103;28;20064;-49
2021/07/12 02:23:29;;;;;;;26.80;7.80;;;;;;;20.65;100.00;96102.28;5042587;28;20075;-49
2021/07/12 02:25:58;;;;;;;51.45;8.15;;;;;;;20.95;100.00;96099.81;5053841;28;20072;-53
2021/07/12 02:28:27;;;;;;;44.22;6.40;;;;;;;20.49;100.00;96100.94;5067346;28;20063;-53
2021/07/12 02:30:55;;;;;;;45.70;7.15;;;;;;;20.06;100.00;96101.56;5063936;28;20457;-53
2021/07/12 02:33:25;;;;;;;54.63;6.82;;;;;;;20.60;100.00;96108.31;5062756;28;20447;-54
2021/07/12 02:35:55;;;;;;;33.38;6.72;;;;;;;20.53;100.00;96100.31;5067038;28;20067;-52
2021/07/12 02:38:25;;;;;;;60.28;7.28;;;;;;;21.56;100.00;96096.41;5045371;28;20033;-52
2021/07/12 02:40:54;;;;;;;85.72;8.55;;;;;;;21.99;100.00;96095.50;5064333;28;20091;-54
2021/07/12 02:43:23;;;;;;;96.80;9.48;;;;;;;22.04;100.00;96091.09;5064882;28;20447;-55
2021/07/12 02:46:12;;;;;;;75.28;7.55;;;;;;;21.13;100.00;96088.31;5061864;28;20118;-54
2021/07/12 02:48:41;;;;;;;69.05;7.32;;;;;;;21.70;100.00;96080.97;5062531;28;20072;-53
2021/07/12 02:51:14;;;;;;;24.50;5.97;;;;;;;21.45;100.00;96084.53;5064462;28;20068;-56
2021/07/12 02:53:47;;;;;;;84.60;8.50;;;;;;;21.35;100.00;96084.22;5059847;28;20068;-55
2021/07/12 02:56:16;;;;;;;52.67;7.10;;;;;;;21.70;100.00;96078.28;5062563;28;20478;-53
2021/07/12 02:58:45;;;;;;;98.03;8.40;;;;;;;21.91;100.00;96082.38;5063779;28;20080;-54
2021/07/12 03:01:13;;;;;;;105.05;9.88;;;;;;;21.44;100.00;96077.53;5064249;28;20068;-55
2021/07/12 03:03:42;;;;;;;135.70;10.30;;;;;;;21.69;100.00;96085.53;5065103;28;20068;-55
2021/07/12 03:06:12;;;;;;;169.90;12.30;;;;;;;21.37;100.00;96084.00;5064455;28;20056;-55
2021/07/12 03:08:46;;;;;;;83.95;9.45;;;;;;;22.02;100.00;96082.44;5065831;28;20067;-53
2021/07/12 03:11:16;;;;;;;83.45;9.55;;;;;;;21.25;100.00;96089.25;5068934;28;20072;-56
2021/07/12 03:13:45;;;;;;;;;;;;;;;21.99;100.00;96092.81;5053361;28;20060;-54
2021/07/12 03:16:14;;;;;;;37.35;7.43;;;;;;;21.68;100.00;96083.88;5051581;28;19947;-51
2021/07/12 03:18:47;;;;;;;32.45;6.88;;;;;;;21.79;100.00;96091.19;5066497;28;20076;-57
2021/07/12 03:21:19;;;;;;;48.97;8.25;;;;;;;21.99;100.00;96093.63;5063113;28;20837;-54
2021/07/12 03:23:49;;;;;;;47.40;8.40;;;;;;;21.01;100.00;96089.03;5066986;28;20064;-51
2021/07/12 03:26:20;;;;;;;50.45;8.32;;;;;;;21.35;100.00;96091.47;5069165;28;20502;-52
2021/07/12 03:28:50;;;;;;;27.42;7.38;;;;;;;21.70;100.00;96089.03;5071325;28;20044;-52
2021/07/12 03:31:22;;;;;;;33.17;8.02;;;;;;;21.53;100.00;96091.47;5050741;28;20076;-51
2021/07/12 03:33:52;;;;;;;34.30;9.38;;;;;;;21.16;100.00;96093.25;5068175;28;20065;-54
2021/07/12 03:36:20;;;;;;;54.13;8.97;;;;;;;21.53;100.00;96089.59;5068365;28;20098;-52
2021/07/12 03:38:49;;;;;;;36.05;9.05;;;;;;;20.96;100.00;96104.16;5067940;28;20691;-57
2021/07/12 03:41:19;;;;;;;45.40;9.70;;;;;;;20.98;100.00;96105.56;5064513;28;20064;-50
2021/07/12 03:43:47;;;;;;;48.38;9.68;;;;;;;21.26;100.00;96109.66;5069976;28;20103;-52
2021/07/12 03:46:17;;;;;;;54.42;10.07;;;;;;;21.06;100.00;96112.53;5068639;28;20098;-54
2021/07/12 03:48:47;;;;;;;31.73;8.93;;;;;;;21.18;100.00;96112.63;5068888;28;20067;-56
2021/07/12 03:51:21;;;;;;;52.25;9.68;;;;;;;20.77;100.00;96112.09;5069047;28;20444;-52
2021/07/12 03:53:50;;;;;;;37.38;9.88;;;;;;;20.65;100.00;96099.63;5051234;28;20068;-50
2021/07/12 03:56:20;;;;;;;58.55;11.07;;;;;;;21.62;100.00;96094.69;5069479;28;20525;-52
2021/07/12 03:58:49;;;;;;;32.95;9.93;;;;;;;19.97;100.00;96102.84;5069498;28;20075;-53
2021/07/12 04:01:21;;;;;;;66.55;11.05;;;;;;;21.43;100.00;96104.56;5066929;28;20067;-53
2021/07/12 04:03:51;;;;;;;58.25;11.02;;;;;;;22.48;100.00;96099.84;5063542;28;20068;-54
2021/07/12 04:06:19;;;;;;;82.70;10.90;;;;;;;21.27;100.00;96098.72;5063237;28;20083;-53
2021/07/12 04:08:48;;;;;;;66.93;11.30;;;;;;;20.21;100.00;96091.41;5069333;28;20450;-51
2021/07/12 04:11:18;;;;;;;38.80;10.77;;;;;;;20.48;100.00;96088.59;5064832;28;20068;-54
2021/07/12 04:13:47;;;;;;;30.35;10.50;;;;;;;21.75;100.00;96081.94;5070906;28;20068;-54
2021/07/12 04:16:16;;;;;;;33.83;10.00;;;;;;;20.99;100.00;96079.56;5065859;28;20075;-55
2021/07/12 04:18:45;;;;;;;27.80;9.85;;;;;;;20.79;100.00;96079.75;5066401;28;20091;-53
2021/07/12 04:21:14;;;;;;;68.75;10.93;;;;;;;21.21;100.00;96083.50;5067951;28;20064;-50
2021/07/12 04:23:42;;;;;;;69.93;9.75;;;;;;;21.19;100.00;96087.44;5068629;28;20087;-53
2021/07/12 04:26:11;;;;;;;72.03;10.55;;;;;;;20.49;100.00;96088.38;5068946;28;20075;-54
2021/07/12 04:28:39;;;;;;;43.15;9.15;;;;;;;21.23;100.00;96081.44;5071131;28;20084;-51
2021/07/12 04:31:09;;;;;;;61.50;9.73;;;;;;;21.99;100.00;96077.53;5063469;28;20406;-52
2021/07/12 04:33:37;;;;;;;80.15;10.43;;;;;;;21.26;100.00;96072.09;5064756;28;20064;-56
2021/07/12 04:36:05;;;;;;;54.83;9.23;;;;;;;20.92;100.00;96078.81;5067398;28;20060;-53
2021/07/12 04:38:35;;;;;;;45.00;9.00;;;;;;;22.08;100.00;96072.66;5048688;28;20056;-53
2021/07/12 04:41:03;;;;;;;29.83;9.32;;;;;;;22.18;100.00;96072.16;5067160;28;20442;-53
2021/07/12 04:43:32;;;;;;;48.15;8.50;;;;;;;22.03;100.00;96070.66;5068562;28;20071;-53
2021/07/12 04:46:00;;;;;;;49.33;9.70;;;;;;;22.68;100.00;96066.50;5067508;28;20052;-52
2021/07/12 04:48:30;;;;;;;58.33;9.07;;;;;;;22.83;100.00;96071.41;5068552;28;20072;-54
2021/07/12 04:50:59;;;;;;;92.97;9.68;;;;;;;22.44;100.00;96069.09;5063334;28;20082;-52
2021/07/12 04:53:27;;;;;;;76.90;9.45;;;;;;;22.27;100.00;96063.56;5064527;28;20060;-55
2021/07/12 04:55:55;;;;;;;110.72;9.98;;;;;;;22.85;100.00;96066.59;5067138;28;20446;-57
2021/07/12 04:58:24;;;;;;;56.30;9.15;;;;;;;22.42;100.00;96068.50;5070483;28;20449;-56
2021/07/12 05:00:52;;;;;;;93.55;10.68;;;;;;;23.19;100.00;96068.56;5064062;28;20447;-55
2021/07/12 05:03:26;;;;;;;64.85;10.18;;;;;;;23.15;100.00;96063.88;5066091;28;20076;-54
2021/07/12 05:05:56;;;;;;;91.15;10.70;;;;;;;22.78;100.00;96063.19;5066105;28;20056;-52
2021/07/12 05:08:24;;;;;;;40.30;8.50;;;;;;;22.70;100.00;96069.75;5046280;28;20075;-56
2021/07/12 05:10:53;;;;;;;60.35;9.68;;;;;;;22.69;100.00;96077.00;5068130;28;20072;-49
2021/07/12 05:13:22;;;;;;;73.57;10.02;;;;;;;22.16;100.00;96071.53;5065265;28;20060;-57
2021/07/12 05:15:50;;;;;;;89.82;10.00;;;;;;;21.91;100.00;96069.75;5062000;28;20072;-55
2021/07/12 05:18:18;;;;;;;53.20;9.48;;;;;;;22.30;100.00;96064.97;5064335;28;20123;-54
2021/07/12 05:20:47;;;;;;;39.80;8.45;;;;;;;23.07;100.00;96061.53;5065180;28;20076;-51
2021/07/12 05:23:17;;;;;;;59.10;9.60;;;;;;;23.04;100.00;96059.31;5061144;28;20460;-53
2021/07/12 05:25:45;;;;;;;44.42;9.18;;;;;;;24.00;100.00;96063.31;5068463;28;20540;-55
2021/07/12 05:28:13;;;;;;;44.05;7.50;;;;;;;23.57;100.00;96063.72;5066532;28;20068;-53
2021/07/12 05:30:42;;;;;;;65.47;8.73;;;;;;;23.43;100.00;96055.94;5065982;28;20076;-50
2021/07/12 05:33:10;;;;;;;59.13;8.70;;;;;;;23.37;100.00;96064.94;5063975;28;20075;-55
2021/07/12 05:35:38;;;;;;;102.35;9.65;;;;;;;23.75;100.00;96070.88;5065669;28;20533;-52
2021/07/12 05:38:07;;;;;;;55.83;8.25;;;;;;;23.37;100.00;96066.81;5063540;28;20080;-55
2021/07/12 05:40:37;;;;;;;32.13;8.38;;;;;;;23.20;100.00;96072.06;5068806;28;20092;-53
2021/07/12 05:43:08;;;;;;;81.70;9.63;;;;;;;23.00;100.00;96077.78;5067096;28;20068;-55
2021/07/12 05:45:36;;;;;;;;;;;;;;;23.49;100.00;96066.78;5062343;28;20573;-53
2021/07/12 05:48:05;;;;;;;39.63;8.40;;;;;;;22.75;100.00;96072.56;5064858;28;19956;-52
2021/07/12 05:50:33;;;;;;;44.15;8.68;;;;;;;22.69;100.00;96076.19;5066125;28;20071;-55
2021/07/12 05:53:01;;;;;;;11.73;8.13;;;;;;;23.35;100.00;96074.28;5063941;28;20072;-52
2021/07/12 05:55:30;;;;;;;15.73;9.10;;;;;;;23.03;100.00;96080.00;5068362;28;20087;-57
2021/07/12 05:58:00;;;;;;;14.40;8.88;;;;;;;23.85;100.00;96074.59;5065985;28;20064;-55
2021/07/12 06:00:28;;;;;;;15.43;9.02;;;;;;;24.53;100.00;96080.22;5063930;28;20575;-56
2021/07/12 06:02:57;;;;;;;15.27;8.95;;;;;;;23.92;100.00;96072.59;5064088;28;20493;-57
2021/07/12 06:05:25;;;;;;;11.82;8.10;;;;;;;23.37;100.00;96062.25;5061674;28;20107;-51
2021/07/12 06:07:53;;;;;;;9.10;7.40;;;;;;;24.49;100.00;96068.31;5061696;28;20075;-54
2021/07/12 06:10:22;;;;;;;24.70;8.07;;;;;;;24.41;100.00;96055.22;5067713;28;20075;-57
2021/07/12 06:12:50;;;;;;;17.35;8.15;;;;;;;23.71;100.00;96051.69;5064425;28;20079;-54
2021/07/12 06:15:20;;;;;;;24.75;8.57;;;;;;;24.65;100.00;96062.13;5064889;28;20060;-56
2021/07/12 06:17:51;;;;;;;18.60;8.90;;;;;;;24.33;100.00;96062.63;5065141;28;20076;-53
2021/07/12 06:20:19;;;;;;;15.75;7.78;;;;;;;24.44;100.00;96060.97;5064404;28;20067;-56
2021/07/12 06:22:49;;;;;;;20.92;8.55;;;;;;;23.12;100.00;96062.44;5065826;28;20549;-54
2021/07/12 06:25:21;;;;;;;18.35;8.55;;;;;;;24.39;100.00;96060.81;5064550;28;20594;-54
2021/07/12 06:27:49;;;;;;;20.98;8.57;;;;;;;25.51;100.00;96061.88;5063619;28;20075;-57
2021/07/12 06:30:18;;;;;;;35.28;8.98;;;;;;;24.60;100.00;96062.03;5060678;28;20071;-53
2021/07/12 06:32:48;;;;;;;13.02;9.30;;;;;;;24.87;100.00;96054.13;5058146;28;20079;-52
2021/07/12 06:36:16;;;;;;;15.05;7.90;;;;;;;22.37;100.00;96054.94;5054357;27;20606;-47
2021/07/12 06:38:44;;;;;;;43.90;9.35;;;;;;;23.92;100.00;96044.84;5040458;28;20756;-50
2021/07/12 06:41:13;;;;;;;15.45;8.35;;;;;;;24.09;100.00;96042.22;5041078;28;20100;-48
2021/07/12 06:43:41;;;;;;;8.88;7.95;;;;;;;23.35;100.00;96042.00;5044880;28;20073;-53
2021/07/12 06:46:10;;;;;;;11.18;8.68;;;;;;;22.88;100.00;96048.16;5037099;28;20476;-51
2021/07/12 06:48:38;;;;;;;10.00;8.55;;;;;;;23.63;100.00;96036.69;5034840;28;20554;-51
2021/07/12 06:51:08;;;;;;;9.43;8.50;;;;;;;23.45;100.00;96036.84;5025146;28;20073;-50
2021/07/12 06:53:38;;;;;;;7.60;6.25;;;;;;;24.42;100.00;96036.09;5032565;28;20075;-49
2021/07/12 06:56:07;;;;;;;8.77;6.57;;;;;;;24.25;100.00;96035.22;5059815;28;20088;-51
2021/07/12 06:58:35;;;;;;;7.25;6.40;;;;;;;25.38;100.00;96035.25;5059037;28;20083;-50
2021/07/12 07:01:03;;;;;;;6.90;6.20;;;;;;;25.91;94.69;96034.63;5059837;28;20495;-53
2021/07/12 07:03:32;;;;;;;7.10;6.13;;;;;;;24.91;100.00;96028.28;5061147;28;20101;-50
2021/07/12 07:06:00;;;;;;;11.20;5.72;;;;;;;24.88;100.00;96026.13;5055321;28;20076;-52
2021/07/12 07:08:29;;;;;;;6.72;6.05;;;;;;;23.79;100.00;96035.16;5057410;28;20064;-50
2021/07/12 07:10:59;;;;;;;7.38;6.55;;;;;;;24.04;100.00;96026.75;5059696;28;20084;-48
2021/07/12 07:13:27;;;;;;;7.40;6.38;;;;;;;24.64;100.00;96028.16;5057263;28;20103;-52
2021/07/12 07:15:56;;;;;;;6.70;6.00;;;;;;;25.11;100.00;96027.81;5060806;28;20525;-51
2021/07/12 07:18:24;;;;;;;7.85;6.22;;;;;;;23.98;100.00;96018.81;5053759;28;20056;-50
2021/07/12 07:20:53;;;;;;;8.18;5.50;;;;;;;25.09;100.00;96017.25;5056598;28;20510;-46
2021/07/12 07:23:22;;;;;;;6.35;5.75;;;;;;;24.91;100.00;96019.38;5055275;28;20064;-46
2021/07/12 07:25:51;;;;;;;6.33;5.17;;;;;;;26.28;100.00;96007.72;5064607;28;20079;-52
2021/07/12 07:28:21;;;;;;;6.47;4.90;;;;;;;25.29;100.00;96015.94;5056574;28;20068;-50
2021/07/12 07:30:50;;;;;;;5.72;4.60;;;;;;;25.73;100.00;96008.69;5054075;28;20523;-51
2021/07/12 07:33:18;;;;;;;5.75;4.88;;;;;;;25.99;100.00;96000.94;5059575;28;20447;-49
2021/07/12 07:35:46;;;;;;;6.78;3.90;;;;;;;26.50;100.00;95996.06;5057341;28;20060;-51
2021/07/12 07:38:15;;;;;;;4.65;3.83;;;;;;;25.88;100.00;95999.16;5052763;28;20064;-49
2021/07/12 07:40:43;;;;;;;6.07;3.90;;;;;;;26.24;96.31;95998.47;5063093;28;20080;-48
2021/07/12 07:43:12;;;;;;;5.32;4.20;;;;;;;26.59;94.04;95999.09;5059224;28;20056;-46
2021/07/12 07:45:41;;;;;;;4.00;3.47;;;;;;;26.27;95.03;96002.56;5053736;28;20079;-49
2021/07/12 07:48:11;;;;;;;4.32;3.92;;;;;;;26.32;91.53;95996.38;5044529;28;20514;-47
2021/07/12 07:50:42;;;;;;;4.35;3.42;;;;;;;26.17;91.41;96000.56;5042326;28;20068;-51
2021/07/12 07:53:11;;;;;;;3.40;3.10;;;;;;;26.98;80.33;95989.69;5041427;28;20077;-49
2021/07/12 07:55:40;;;;;;;3.78;2.92;;;;;;;26.51;82.38;96003.91;5040313;28;20081;-48
2021/07/12 07:58:09;;;;;;;4.07;2.72;;;;;;;25.93;80.96;95991.94;5041753;28;20118;-51
2021/07/12 08:00:37;;;;;;;3.30;2.90;;;;;;;25.98;84.44;95999.28;5044282;28;20072;-48
2021/07/12 08:03:07;;;;;;;4.95;2.60;;;;;;;26.42;80.62;95983.78;5042938;28;20079;-50
2021/07/12 08:05:35;;;;;;;3.83;2.65;;;;;;;26.91;77.08;95988.25;5042727;28;20486;-48
2021/07/12 08:08:04;;;;;;;3.10;2.00;;;;;;;27.01;73.16;95979.41;5042915;28;20100;-48
2021/07/12 08:10:34;;;;;;;4.63;2.40;;;;;;;26.12;78.53;95988.88;5049730;28;20064;-48
2021/07/12 08:13:07;;;;;;;3.38;2.40;;;;;;;26.84;75.76;95972.28;5041796;28;20123;-50
2021/07/12 08:15:35;;;;;;;2.00;1.80;;;;;;;26.27;74.47;95970.13;5039294;28;20080;-49
2021/07/12 08:18:04;;;;;;;2.33;2.03;;;;;;;26.37;71.82;95969.41;5044154;28;20084;-51
2021/07/12 08:20:34;;;;;;;3.08;1.92;;;;;;;27.47;65.57;95960.75;5046440;28;20072;-52
2021/07/12 08:23:03;;;;;;;1.90;1.70;;;;;;;26.22;63.22;95965.50;5039860;28;20107;-47
2021/07/12 08:25:32;;;;;;;5.33;1.90;;;;;;;27.10;64.21;95962.41;5042365;28;20490;-50
2021/07/12 08:28:01;;;;;;;2.47;2.05;;;;;;;27.81;59.72;95956.59;5043769;28;20470;-49
2021/07/12 08:30:29;;;;;;;2.13;1.75;;;;;;;27.78;57.47;95948.19;5042871;28;20090;-52
2021/07/12 08:32:58;;;;;;;1.52;1.42;;;;;;;27.57;56.85;95953.50;5042037;28;20570;-49
2021/07/12 08:35:27;;;;;;;2.10;1.65;;;;;;;26.92;61.23;95950.13;5039327;28;20526;-51
2021/07/12 08:37:57;;;;;;;3.80;1.63;;;;;;;27.34;57.14;95941.19;5044965;28;20071;-47
2021/07/12 08:40:28;;;;;;;2.53;1.80;;;;;;;27.44;57.95;95943.94;5027147;28;20522;-51
2021/07/12 08:42:58;;;;;;;3.22;1.63;;;;;;;27.44;59.73;95951.25;5035193;28;20072;-49
2021/07/12 08:45:28;;;;;;;2.47;1.48;;;;;;;27.69;58.36;95939.69;5044561;28;20072;-49
2021/07/12 08:47:58;;;;;;;2.27;1.80;;;;;;;28.36;57.42;95938.78;5040259;28;20060;-51
2021/07/12 08:50:28;;;;;;;2.58;1.70;;;;;;;27.35;57.32;95937.41;5039379;28;20858;-48
2021/07/12 08:52:57;;;;;;;2.22;1.70;;;;;;;27.39;56.35;95932.25;5040453;28;20095;-49
2021/07/12 08:55:26;;;;;;;;;;;;;;;27.55;54.98;95933.97;5050833;28;20217;-52
2021/07/12 08:58:01;;;;;;;8.10;2.00;;;;;;;28.03;58.61;95920.31;5025428;28;19967;-48
2021/07/12 09:00:39;;;;;;;2.15;1.60;;;;;;;27.79;53.83;95920.00;5051597;28;20514;-46
2021/07/12 09:03:32;;;;;;;2.47;2.00;;;;;;;28.16;55.09;95927.94;5027706;28;20065;-49
2021/07/12 09:06:03;;;;;;;2.85;2.30;;;;;;;28.36;53.92;95936.09;5039069;28;20083;-51
2021/07/12 09:08:52;;;;;;;2.33;1.98;;;;;;;28.11;52.62;95931.47;5042647;28;20497;-46
2021/07/12 09:11:23;;;;;;;4.07;2.75;;;;;;;27.87;52.94;95925.72;5039562;28;20091;-49
2021/07/12 09:13:59;;;;;;;2.85;2.40;;;;;;;27.91;54.17;95931.41;5044382;28;20405;-54
2021/07/12 09:16:43;;;;;;;4.47;2.75;;;;;;;27.88;52.70;95921.09;5038859;28;21372;-50
2021/07/12 09:19:21;;;;;;;2.60;2.35;;;;;;;28.52;52.00;95912.50;5040924;28;20065;-50
2021/07/12 09:21:53;;;;;;;4.50;2.50;;;;;;;27.49;52.81;95912.53;5040760;28;20076;-51
2021/07/12 09:24:31;;;;;;;3.85;2.60;;;;;;;28.26;52.06;95906.25;5038381;28;20523;-49
2021/07/12 09:27:02;;;;;;;3.10;2.33;;;;;;;27.42;55.92;95897.34;5041398;28;20140;-49
2021/07/12 09:29:34;;;;;;;3.65;2.60;;;;;;;27.41;54.53;95894.91;5041840;28;20079;-50
2021/07/12 09:32:05;;;;;;;2.63;2.22;;;;;;;28.98;48.44;95898.88;5041049;28;20108;-47
2021/07/12 09:34:34;;;;;;;2.22;2.00;;;;;;;27.40;48.06;95898.72;5043855;28;20121;-48
2021/07/12 09:37:03;;;;;;;4.30;2.17;;;;;;;28.02;50.27;95889.69;5041100;28;20467;-46
2021/07/12 09:39:35;;;;;;;2.03;1.83;;;;;;;27.81;48.24;95893.44;5043402;28;20075;-46
2021/07/12 09:42:06;;;;;;;2.67;2.20;;;;;;;28.11;47.49;95890.78;5040398;28;20076;-48
2021/07/12 09:44:39;;;;;;;2.10;1.90;;;;;;;28.15;48.50;95897.28;5038910;28;20075;-47
2021/07/12 09:47:10;;;;;;;2.92;2.08;;;;;;;29.17;47.73;95887.44;5037876;28;20092;-48
2021/07/12 09:49:39;;;;;;;2.22;1.98;;;;;;;28.10;48.06;95904.59;5041312;28;20073;-46
2021/07/12 09:52:10;;;;;;;3.08;1.92;;;;;;;28.78;47.12;95898.94;5043143;28;20084;-51
2021/07/12 09:54:41;;;;;;;2.40;1.90;;;;;;;29.48;46.63;95891.66;5039885;28;20091;-48
2021/07/12 09:57:12;;;;;;;3.53;2.08;;;;;;;28.18;46.74;95887.78;5042557;28;20086;-46
2021/07/12 09:59:54;;;;;;;3.17;2.20;;;;;;;27.97;48.61;95891.56;5040000;28;20080;-46
2021/07/12 10:02:25;;;;;;;2.22;2.03;;;;;;;28.53;47.48;95897.06;5039396;28;20459;-49
2021/07/12 10:04:57;;;;;;;2.30;2.10;;;;;;;28.49;47.53;95894.06;5042779;28;20142;-50
2021/07/12 10:07:26;;;;;;;3.10;2.58;;;;;;;28.88;47.37;95887.25;5043669;28;20467;-46
2021/07/12 10:09:56;;;;;;;3.13;2.15;;;;;;;28.36;47.73;95889.97;5036246;28;20547;-49
2021/07/12 10:12:44;;;;;;;3.60;2.17;;;;;;;28.54;45.53;95890.53;5039224;28;20090;-49
2021/07/12 10:15:14;;;;;;;3.63;2.30;;;;;;;29.54;47.19;95889.75;5042963;28;20072;-45
2021/07/12 10:17:43;;;;;;;2.95;2.65;;;;;;;29.54;44.10;95878.88;5032154;28;20258;-49
2021/07/12 10:20:13;;;;;;;2.72;2.53;;;;;;;29.12;44.76;95882.06;5041599;28;20092;-50
2021/07/12 10:22:42;;;;;;;3.40;2.55;;;;;;;29.02;45.21;95872.03;5045225;28;20084;-47
2021/07/12 10:25:13;;;;;;;2.60;2.40;;;;;;;28.91;45.65;95864.97;5038415;28;20060;-48
2021/07/12 10:27:51;;;;;;;2.63;2.40;;;;;;;28.92;46.12;95872.84;5038214;28;20056;-48
2021/07/12 10:30:25;;;;;;;2.47;2.28;;;;;;;29.49;45.81;95859.88;5042747;28;20065;-47
2021/07/12 10:32:55;;;;;;;3.60;2.42;;;;;;;29.09;45.77;95858.97;5041370;28;20427;-50
2021/07/12 10:35:38;;;;;;;2.45;2.20;;;;;;;29.76;46.03;95857.56;5037949;28;20495;-53
2021/07/12 10:38:07;;;;;;;2.53;2.30;;;;;;;29.26;44.95;95847.78;5044164;28;20064;-48
2021/07/12 10:40:48;;;;;;;2.78;2.58;;;;;;;29.33;43.01;95854.53;5043526;28;20432;-51
2021/07/12 10:43:45;;;;;;;4.68;2.90;;;;;;;30.06;44.35;95850.31;5044624;28;20052;-47
2021/07/12 10:46:39;;;;;;;3.00;2.70;;;;;;;30.64;42.93;95842.22;5040942;28;20072;-50
2021/07/12 10:49:35;;;;;;;3.47;3.15;;;;;;;30.31;43.20;95840.34;5039077;28;20076;-50
2021/07/12 10:52:05;;;;;;;2.83;2.55;;;;;;;30.49;42.07;95836.94;5043223;28;20079;-49
2021/07/12 10:55:01;;;;;;;3.80;3.10;;;;;;;30.09;44.49;95841.59;5041224;28;20129;-49
2021/07/12 10:57:32;;;;;;;2.90;2.70;;;;;;;29.53;44.49;95834.59;5039364;28;20593;-49
2021/07/12 11:00:11;;;;;;;3.35;2.95;;;;;;;29.03;46.31;95858.16;5039006;28;20079;-49
2021/07/12 11:02:41;;;;;;;3.30;3.00;;;;;;;30.16;44.39;95854.88;5040990;28;20124;-50
2021/07/12 11:05:15;;;;;;;3.17;2.88;;;;;;;29.45;45.51;95845.22;5039564;28;20083;-46
2021/07/12 11:07:45;;;;;;;2.67;2.47;;;;;;;29.49;45.84;95836.25;5036737;28;20072;-46
2021/07/12 11:10:22;;;;;;;4.95;2.50;;;;;;;29.48;43.60;95844.66;5046909;28;20446;-47
2021/07/12 11:12:54;;;;;;;2.55;2.35;;;;;;;30.09;44.57;95838.88;5020254;28;20065;-48
2021/07/12 11:15:37;;;;;;;7.53;2.78;;;;;;;30.34;47.70;95835.16;5036062;28;20076;-48
2021/07/12 11:18:26;;;;;;;2.88;2.38;;;;;;;29.85;44.87;95837.97;5037570;28;20076;-48
2021/07/12 11:21:05;;;;;;;;;;;;;;;30.37;43.96;95829.13;5043372;28;20049;-49
2021/07/12 11:23:55;;;;;;;3.03;2.58;;;;;;;30.57;42.12;95827.34;5044332;28;19951;-50
2021/07/12 11:26:42;;;;;;;2.65;2.38;;;;;;;30.36;42.60;95822.09;5043487;28;20459;-47
2021/07/12 11:29:20;;;;;;;2.80;2.40;;;;;;;31.07;42.94;95819.72;5044828;28;20182;-48
2021/07/12 11:31:51;;;;;;;2.90;2.30;;;;;;;30.96;41.58;95827.19;5041979;28;20065;-49
2021/07/12 11:34:21;;;;;;;2.30;2.10;;;;;;;30.05;42.61;95824.22;5040216;28;21356;-47
2021/07/12 11:36:52;;;;;;;3.20;2.40;;;;;;;29.63;44.57;95822.88;5044323;28;20060;-52
2021/07/12 11:39:39;;;;;;;5.00;2.20;;;;;;;29.34;44.45;95820.03;5042799;28;20059;-48
2021/07/12 11:42:14;;;;;;;;;;;;;;;29.98;40.67;95815.56;5041253;28;20088;-48
2021/07/12 11:44:50;;;;;;;1.88;1.73;;;;;;;30.86;41.72;95809.06;5047288;28;19963;-49